.
WxDataArchive / Data Records for 2009-04-04
2009-04-03 April 2009 2009-04-05

Data Records for Saturday, 04 April 2009

Time	Temp	Chill	HIndex	Humid	Dewpt	 Wind 	HiWind	WindDir	Rain 	Barom 
-----	----	-----	------	-----	-----	------	------	-------	-----	----- 
00:00	35.3	35.3	35.3	69	26.2	1	4	270	0.00	29.867 
00:05	35.3	35.3	35.3	69	26.2	1	3	270	0.00	29.863 
00:10	35.2	35.2	35.2	70	26.4	1	4	270	0.00	29.864 
00:15	35.3	35.3	35.3	69	26.2	1	5	248	0.00	29.863 
00:20	35.3	35.3	35.3	69	26.2	0	2	248	0.00	29.864 
00:25	35.2	35.2	35.2	69	26.1	1	3	248	0.00	29.865 
00:30	35.2	35.2	35.2	70	26.4	0	2	248	0.00	29.865 
00:35	35.2	35.2	35.2	70	26.4	1	4	248	0.00	29.868 
00:40	35.2	35.2	35.2	69	26.1	1	3	248	0.00	29.870 
00:45	35.2	35.2	35.2	70	26.4	1	2	248	0.00	29.870 
00:50	35.0	35.0	35.0	70	26.2	1	3	248	0.00	29.872 
00:55	35.0	35.0	35.0	70	26.2	1	3	270	0.00	29.875 
01:00	35.0	35.0	35.0	70	26.2	0	1	270	0.00	29.869 
01:05	34.9	34.9	34.9	70	26.1	1	2	270	0.00	29.881 
01:10	34.9	34.9	34.9	70	26.1	1	3	270	0.00	29.883 
01:15	34.9	34.9	34.9	71	26.5	1	2	248	0.00	29.882 
01:20	34.9	34.9	34.9	71	26.5	1	4	248	0.00	29.884 
01:25	34.9	34.9	34.9	71	26.5	2	4	248	0.00	29.891 
01:30	35.0	35.0	35.0	70	26.2	2	4	270	0.00	29.888 
01:35	35.2	35.2	35.2	70	26.4	1	3	248	0.00	29.888 
01:40	35.0	35.0	35.0	70	26.2	1	3	248	0.00	29.889 
01:45	35.0	35.0	35.0	71	26.6	1	4	248	0.00	29.884 
01:50	35.0	35.0	35.0	71	26.6	1	2	248	0.00	29.886 
01:55	35.0	35.0	35.0	71	26.6	1	3	248	0.00	29.886 
02:00	35.0	35.0	35.0	71	26.6	1	4	248	0.00	29.893 
02:05	34.9	34.9	34.9	71	26.5	1	3	248	0.00	29.894 
02:10	34.9	34.9	34.9	71	26.5	1	3	248	0.00	29.895 
02:15	34.9	34.9	34.9	71	26.5	1	3	248	0.00	29.898 
02:20	34.9	34.9	34.9	71	26.5	0	2	248	0.00	29.899 
02:25	34.7	34.7	34.7	72	26.6	1	3	248	0.00	29.903 
02:30	34.6	34.6	34.6	72	26.5	1	3	248	0.00	29.907 
02:35	34.6	34.6	34.6	73	26.9	1	3	248	0.00	29.908 
02:40	34.4	34.4	34.4	73	26.7	1	3	248	0.00	29.909 
02:45	34.4	34.4	34.4	73	26.7	1	3	248	0.00	29.914 
02:50	34.3	34.3	34.3	73	26.6	1	2	248	0.00	29.916 
02:55	34.3	34.3	34.3	73	26.6	1	3	248	0.00	29.920 
03:00	34.1	34.1	34.1	74	26.7	1	3	248	0.00	29.926 
03:05	34.1	34.1	34.1	74	26.7	1	3	248	0.00	29.927 
03:10	34.0	34.0	34.0	74	26.6	1	3	248	0.00	29.930 
03:15	33.8	33.8	33.8	75	26.7	1	3	248	0.00	29.928 
03:20	33.8	33.8	33.8	75	26.7	1	3	248	0.00	29.930 
03:25	33.8	33.8	33.8	75	26.7	1	3	248	0.00	29.930 
03:30	33.8	33.8	33.8	75	26.7	1	2	248	0.00	29.933 
03:35	33.8	33.8	33.8	75	26.7	1	2	248	0.00	29.937 
03:40	33.7	33.7	33.7	75	26.6	0	1	248	0.00	29.935 
03:45	33.5	33.5	33.5	75	26.4	0	2	248	0.00	29.934 
03:50	33.4	33.4	33.4	76	26.7	0	1	248	0.00	29.935 
03:55	33.4	33.4	33.4	76	26.7	0	1	248	0.00	29.943 
04:00	33.4	33.4	33.4	77	27.0	0	1	248	0.00	29.947 
04:05	33.4	33.4	33.4	77	27.0	0	2	248	0.00	29.949 
04:10	33.2	33.2	33.2	77	26.8	1	2	248	0.00	29.950 
04:15	33.2	33.2	33.2	77	26.8	0	2	248	0.00	29.955 
04:20	33.4	33.4	33.4	77	27.0	1	3	248	0.00	29.957 
04:25	33.2	33.2	33.2	77	26.8	1	3	248	0.00	29.960 
04:30	33.2	33.2	33.2	77	26.8	0	2	248	0.00	29.962 
04:35	33.2	33.2	33.2	77	26.8	0	2	248	0.00	29.963 
04:40	33.1	33.1	33.1	78	27.0	0	2	248	0.00	29.965 
04:45	33.1	33.1	33.1	78	27.0	0	1	248	0.00	29.967 
04:50	32.9	32.9	32.9	78	26.8	0	2	248	0.00	29.967 
04:55	32.9	32.9	32.9	78	26.8	0	2	248	0.00	29.972 
05:00	32.9	32.9	32.9	78	26.8	0	2	248	0.00	29.975 
05:05	32.9	32.9	32.9	79	27.1	0	2	248	0.00	29.980 
05:10	32.9	32.9	32.9	79	27.1	1	4	248	0.00	29.979 
05:15	32.9	32.9	32.9	79	27.1	0	2	270	0.00	29.980 
05:20	32.9	32.9	32.9	79	27.1	1	2	270	0.00	29.980 
05:25	32.9	32.9	32.9	79	27.1	1	2	270	0.00	29.980 
05:30	32.9	32.9	32.9	80	27.4	0	2	270	0.00	29.981 
05:35	32.9	32.9	32.9	80	27.4	1	2	270	0.00	29.982 
05:40	32.9	32.9	32.9	80	27.4	1	4	248	0.00	29.982 
05:45	32.9	32.9	32.9	80	27.4	1	3	248	0.00	29.983 
05:50	32.9	32.9	32.9	80	27.4	0	1	248	0.00	29.983 
05:55	32.8	32.8	32.8	81	27.6	0	1	248	0.00	29.988 
06:00	32.8	32.8	32.8	81	27.6	0	1	248	0.00	29.989 
06:05	32.7	32.7	32.7	81	27.5	0	1	248	0.00	29.997 
06:10	32.7	32.7	32.7	81	27.5	0	1	248	0.00	29.999 
06:15	32.5	32.5	32.5	82	27.6	0	2	248	0.00	30.000 
06:20	32.5	32.5	32.5	82	27.6	0	1	248	0.00	30.004 
06:25	32.5	32.5	32.5	82	27.6	0	2	248	0.00	30.004 
06:30	32.5	32.5	32.5	82	27.6	0	2	248	0.00	30.012 
06:35	32.7	32.7	32.7	83	28.1	0	2	248	0.00	30.014 
06:40	32.7	32.7	32.7	83	28.1	0	1	248	0.00	30.015 
06:45	32.7	32.7	32.7	83	28.1	0	2	248	0.00	30.015 
06:50	32.8	32.8	32.8	83	28.2	0	2	248	0.00	30.021 
06:55	32.9	32.9	32.9	83	28.3	0	2	248	0.00	30.022 
07:00	33.2	33.2	33.2	83	28.6	0	3	248	0.00	30.027 
07:05	33.5	33.5	33.5	83	28.9	0	2	248	0.00	30.029 
07:10	34.0	34.0	34.0	82	29.1	0	2	248	0.00	30.030 
07:15	34.4	34.4	34.4	81	29.2	0	2	248	0.00	30.032 
07:20	34.9	34.9	34.9	80	29.4	0	1	248	0.00	30.034 
07:25	35.2	35.2	35.2	79	29.4	0	2	248	0.00	30.043 
07:30	35.6	35.6	35.6	78	29.4	1	4	248	0.00	30.045 
07:35	35.9	35.9	35.9	77	29.4	1	5	248	0.00	30.045 
07:40	36.3	36.3	36.3	77	29.8	1	2	248	0.00	30.046 
07:45	36.6	36.6	36.6	76	29.8	1	3	248	0.00	30.045 
07:50	37.0	37.0	37.0	74	29.5	1	3	248	0.00	30.052 
07:55	37.3	37.3	37.3	74	29.8	1	4	0	0.00	30.048 
08:00	37.6	37.6	37.6	72	29.4	1	3	248	0.00	30.052 
08:05	37.8	37.8	37.8	71	29.3	1	2	270	0.00	30.052 
08:10	38.0	38.0	38.0	69	28.7	2	5	270	0.00	30.052 
08:15	38.3	38.3	38.3	69	29.0	2	5	270	0.00	30.053 
08:20	38.6	38.6	38.6	68	29.0	2	9	270	0.00	30.050 
08:25	39.1	39.1	39.1	68	29.4	2	4	270	0.00	30.053 
08:30	39.5	39.5	39.5	66	29.1	1	3	315	0.00	30.055 
08:35	39.8	39.8	39.8	65	29.0	2	4	292	0.00	30.052 
08:40	39.9	39.9	39.9	64	28.7	1	4	315	0.00	30.050 
08:45	40.2	40.2	40.2	63	28.6	2	7	270	0.00	30.050 
08:50	40.3	40.3	40.3	63	28.7	1	4	338	0.00	30.050 
08:55	40.3	40.3	40.3	62	28.3	2	10	270	0.00	30.046 
09:00	40.6	40.6	40.6	61	28.2	2	5	315	0.00	30.051 
09:05	40.8	40.8	40.8	60	28.0	2	5	292	0.00	30.050 
09:10	41.1	41.1	41.1	60	28.3	2	7	338	0.00	30.056 
09:15	41.3	41.3	41.3	60	28.5	2	4	292	0.00	30.055 
09:20	41.3	41.3	41.3	60	28.5	3	5	315	0.00	30.056 
09:25	41.8	41.8	41.8	60	28.9	2	5	0	0.00	30.056 
09:30	42.1	42.1	42.1	57	28.0	3	9	315	0.00	30.058 
09:35	42.1	42.1	42.1	59	28.8	2	7	338	0.00	30.059 
09:40	42.6	42.6	42.6	58	28.9	2	5	0	0.00	30.059 
09:45	42.9	42.9	42.9	56	28.3	1	5	0	0.00	30.059 
09:50	43.2	43.2	43.2	57	29.0	1	4	338	0.00	30.057 
09:55	43.3	43.3	43.3	55	28.2	2	5	270	0.00	30.058 
10:00	43.8	43.8	43.8	56	29.1	2	4	270	0.00	30.059 
10:05	43.9	43.9	43.9	55	28.8	2	5	315	0.00	30.062 
10:10	43.9	43.9	43.9	53	27.9	3	5	270	0.00	30.066 
10:15	43.8	43.8	43.8	56	29.1	2	5	292	0.00	30.068 
10:20	44.3	44.3	44.3	55	29.2	2	6	315	0.00	30.066 
10:25	44.5	44.5	44.5	54	28.9	2	5	338	0.00	30.065 
10:30	44.6	44.6	44.6	54	29.0	2	7	292	0.00	30.062 
10:35	44.6	44.6	44.6	54	29.0	2	5	338	0.00	30.060 
10:40	44.6	44.6	44.6	55	29.4	2	7	315	0.00	30.057 
10:45	44.9	44.9	44.9	55	29.7	2	6	270	0.00	30.061 
10:50	45.1	45.1	45.1	54	29.5	2	7	315	0.00	30.064 
10:55	44.9	44.9	44.9	55	29.7	2	6	270	0.00	30.067 
11:00	45.2	45.2	45.2	53	29.1	2	5	338	0.00	30.072 
11:05	45.5	45.5	45.5	56	30.7	3	8	270	0.00	30.072 
11:10	46.0	46.0	46.0	55	30.7	2	5	270	0.00	30.072 
11:15	46.2	46.2	46.2	53	30.0	3	6	270	0.00	30.072 
11:20	46.4	46.4	46.4	53	30.2	2	6	270	0.00	30.073 
11:25	46.5	46.5	46.5	50	28.9	3	6	315	0.00	30.070 
11:30	46.2	46.2	46.2	55	30.9	2	7	338	0.00	30.071 
11:35	46.5	46.5	46.5	53	30.3	3	7	292	0.00	30.071 
11:40	46.8	46.8	46.8	54	31.0	3	6	270	0.00	30.069 
11:45	47.3	47.3	47.3	52	30.6	2	5	270	0.00	30.069 
11:50	47.4	47.4	47.4	55	32.1	1	4	270	0.00	30.065 
11:55	47.7	47.7	47.7	55	32.3	2	7	0	0.00	30.068 
12:00	47.9	47.9	47.9	53	31.6	2	9	292	0.00	30.065 
12:05	47.9	47.9	47.9	52	31.1	3	7	270	0.00	30.066 
12:10	47.7	47.7	47.7	52	30.9	3	5	338	0.00	30.066 
12:15	47.7	47.7	47.7	52	30.9	3	9	292	0.00	30.069 
12:20	48.2	48.2	48.2	53	31.9	3	6	270	0.00	30.068 
12:25	48.0	48.0	48.0	50	30.3	3	6	270	0.00	30.064 
12:30	48.2	48.2	48.2	53	31.9	2	6	270	0.00	30.063 
12:35	48.8	48.8	48.8	52	32.0	3	7	248	0.00	30.059 
12:40	48.8	48.8	48.8	52	32.0	2	7	248	0.00	30.060 
12:45	48.9	48.9	48.9	53	32.5	3	10	270	0.00	30.060 
12:50	48.9	48.9	48.9	49	30.6	2	6	315	0.00	30.061 
12:55	49.2	49.2	49.2	52	32.3	2	7	248	0.00	30.058 
13:00	49.6	49.6	49.6	50	31.7	3	7	270	0.00	30.054 
13:05	49.9	49.9	49.9	51	32.5	2	5	270	0.00	30.054 
13:10	49.8	49.8	49.8	51	32.4	2	5	315	0.00	30.056 
13:15	49.4	49.4	49.4	50	31.5	2	5	292	0.00	30.053 
13:20	49.5	49.5	49.5	50	31.6	3	7	270	0.00	30.052 
13:25	49.6	49.6	49.6	52	32.7	2	7	338	0.00	30.052 
13:30	49.9	49.9	49.9	50	32.0	2	6	338	0.00	30.050 
13:35	49.9	49.9	49.9	52	33.0	2	6	338	0.00	30.050 
13:40	50.4	50.4	50.4	51	33.0	2	4	248	0.00	30.048 
13:45	50.1	50.1	50.1	49	31.7	2	5	338	0.00	30.049 
13:50	50.4	50.4	50.4	49	32.0	3	6	270	0.00	30.050 
13:55	50.7	50.7	50.7	50	32.7	3	6	270	0.00	30.048 
14:00	50.8	50.8	50.8	50	32.8	3	7	270	0.00	30.048 
14:05	50.4	50.4	50.4	49	32.0	2	5	338	0.00	30.050 
14:10	50.7	50.7	50.7	48	31.7	2	5	315	0.00	30.049 
14:15	50.8	50.8	50.8	48	31.8	3	6	248	0.00	30.043 
14:20	51.3	51.3	51.3	48	32.3	3	6	270	0.00	30.045 
14:25	51.3	51.3	51.3	50	33.3	2	6	292	0.00	30.042 
14:30	51.1	51.1	51.1	48	32.1	2	6	315	0.00	30.037 
14:35	51.1	51.1	51.1	48	32.1	2	4	338	0.00	30.038 
14:40	51.9	51.9	51.9	49	33.3	2	6	248	0.00	30.034 
14:45	52.0	52.0	52.0	48	32.9	2	5	270	0.00	30.034 
14:50	52.0	52.0	52.0	48	32.9	2	4	248	0.00	30.034 
14:55	52.2	52.2	52.2	50	34.1	2	7	248	0.00	30.033 
15:00	52.3	52.3	52.3	46	32.1	3	7	248	0.00	30.026 
15:05	52.0	52.0	52.0	46	31.9	3	10	270	0.00	30.027 
15:10	52.0	52.0	52.0	48	32.9	1	3	270	0.00	30.022 
15:15	52.0	52.0	52.0	46	31.9	1	5	0	0.00	30.022 
15:20	52.2	52.2	52.2	46	32.1	1	6	0	0.00	30.021 
15:25	52.0	52.0	52.0	45	31.3	2	5	292	0.00	30.021 
15:30	52.0	52.0	52.0	45	31.3	2	7	248	0.00	30.020 
15:35	52.0	52.0	52.0	47	32.4	1	4	315	0.00	30.019 
15:40	52.2	52.2	52.2	44	31.0	1	3	338	0.00	30.020 
15:45	52.3	52.3	52.3	47	32.7	1	3	315	0.00	30.018 
15:50	52.5	52.5	52.5	46	32.3	2	5	315	0.00	30.018 
15:55	52.6	52.6	52.6	44	31.3	1	5	270	0.00	30.017 
16:00	52.8	52.8	52.8	44	31.5	2	7	270	0.00	30.015 
16:05	52.5	52.5	52.5	44	31.2	2	6	270	0.00	30.015 
16:10	52.5	52.5	52.5	44	31.2	2	7	270	0.00	30.013 
16:15	52.6	52.6	52.6	43	30.7	1	5	270	0.00	30.011 
16:20	52.8	52.8	52.8	42	30.3	1	5	270	0.00	30.010 
16:25	52.5	52.5	52.5	42	30.1	1	4	292	0.00	30.006 
16:30	52.6	52.6	52.6	42	30.2	1	4	248	0.00	30.003 
16:35	52.5	52.5	52.5	43	30.7	1	3	338	0.00	30.002 
16:40	52.5	52.5	52.5	43	30.7	1	3	315	0.00	30.002 
16:45	52.8	52.8	52.8	43	30.9	1	3	315	0.00	30.002 
16:50	52.8	52.8	52.8	42	30.3	1	3	292	0.00	30.002 
16:55	52.5	52.5	52.5	41	29.5	1	4	292	0.00	30.003 
17:00	52.5	52.5	52.5	43	30.7	1	3	315	0.00	30.002 
17:05	52.5	52.5	52.5	42	30.1	1	3	292	0.00	30.003 
17:10	52.6	52.6	52.6	43	30.7	0	2	338	0.00	30.001 
17:15	52.3	52.3	52.3	42	29.9	1	3	315	0.00	30.001 
17:20	52.2	52.2	52.2	42	29.8	1	3	338	0.00	30.003 
17:25	52.0	52.0	52.0	43	30.2	1	4	315	0.00	30.004 
17:30	51.7	51.7	51.7	44	30.5	0	2	0	0.00	30.004 
17:35	51.6	51.6	51.6	44	30.4	1	3	0	0.00	30.002 
17:40	51.7	51.7	51.7	44	30.5	1	3	315	0.00	30.004 
17:45	51.4	51.4	51.4	42	29.1	1	2	225	0.00	30.006 
17:50	51.1	51.1	51.1	43	29.4	1	5	338	0.00	30.006 
17:55	51.0	51.0	51.0	43	29.3	1	3	338	0.00	30.007 
18:00	51.0	51.0	51.0	42	28.7	1	4	248	0.00	30.004 
18:05	50.8	50.8	50.8	43	29.1	0	2	292	0.00	30.004 
18:10	50.7	50.7	50.7	43	29.0	0	1	292	0.00	30.005 
18:15	50.2	50.2	50.2	42	28.0	1	4	292	0.00	30.006 
18:20	49.9	49.9	49.9	43	28.3	0	2	338	0.00	30.006 
18:25	49.8	49.8	49.8	44	28.8	0	2	315	0.00	30.005 
18:30	49.5	49.5	49.5	44	28.5	0	2	315	0.00	30.005 
18:35	49.2	49.2	49.2	46	29.3	0	1	315	0.00	30.005 
18:40	48.9	48.9	48.9	45	28.5	0	1	315	0.00	30.000 
18:45	48.8	48.8	48.8	45	28.4	0	2	315	0.00	29.992 
18:50	48.5	48.5	48.5	46	28.7	0	1	338	0.00	29.991 
18:55	48.2	48.2	48.2	46	28.4	0	0	---	0.00	29.992 
19:00	47.7	47.7	47.7	47	28.5	0	1	338	0.00	29.993 
19:05	47.4	47.4	47.4	48	28.7	0	0	---	0.00	29.988 
19:10	47.0	47.0	47.0	48	28.3	0	0	---	0.00	29.990 
19:15	46.7	46.7	46.7	49	28.6	0	0	---	0.00	29.990 
19:20	46.2	46.2	46.2	49	28.1	0	0	---	0.00	29.990 
19:25	46.0	46.0	46.0	50	28.4	0	0	---	0.00	29.990 
19:30	45.5	45.5	45.5	50	28.0	0	0	---	0.00	29.990 
19:35	45.1	45.1	45.1	51	28.1	0	0	---	0.00	29.992 
19:40	44.6	44.6	44.6	52	28.1	0	0	---	0.00	29.996 
19:45	44.3	44.3	44.3	53	28.3	0	0	---	0.00	29.996 
19:50	44.1	44.1	44.1	54	28.5	0	0	---	0.00	29.994 
19:55	43.6	43.6	43.6	54	28.1	0	0	---	0.00	29.992 
20:00	43.3	43.3	43.3	54	27.8	0	0	---	0.00	29.993 
20:05	42.9	42.9	42.9	55	27.9	0	0	---	0.00	29.989 
20:10	42.6	42.6	42.6	56	28.0	0	0	---	0.00	29.990 
20:15	42.3	42.3	42.3	56	27.7	0	0	---	0.00	29.993 
20:20	42.1	42.1	42.1	56	27.5	0	0	---	0.00	29.993 
20:25	41.9	41.9	41.9	58	28.2	0	0	---	0.00	29.991 
20:30	41.6	41.6	41.6	58	27.9	0	0	---	0.00	29.990 
20:35	41.5	41.5	41.5	59	28.3	0	0	---	0.00	29.984 
20:40	41.2	41.2	41.2	60	28.4	0	0	---	0.00	29.981 
20:45	40.9	40.9	40.9	61	28.5	0	0	---	0.00	29.987 
20:50	40.6	40.6	40.6	61	28.2	0	0	---	0.00	29.989 
20:55	40.6	40.6	40.6	62	28.6	0	1	338	0.00	29.979 
21:00	40.6	40.6	40.6	62	28.6	0	0	---	0.00	29.977 
21:05	40.5	40.5	40.5	61	28.1	0	0	---	0.00	29.983 
21:10	40.5	40.5	40.5	62	28.5	0	0	---	0.00	29.985 
21:15	40.3	40.3	40.3	61	27.9	0	0	---	0.00	29.985 
21:20	40.1	40.1	40.1	61	27.7	0	0	---	0.00	29.987 
21:25	40.1	40.1	40.1	62	28.1	0	0	---	0.00	29.992 
21:30	40.1	40.1	40.1	62	28.1	0	0	---	0.00	29.997 
21:35	39.9	39.9	39.9	62	28.0	0	0	---	0.00	29.992 
21:40	39.6	39.6	39.6	62	27.7	0	0	---	0.00	29.991 
21:45	39.3	39.3	39.3	62	27.4	0	0	---	0.00	29.991 
21:50	38.9	38.9	38.9	63	27.4	0	0	---	0.00	29.991 
21:55	38.6	38.6	38.6	65	27.9	0	0	---	0.00	29.988 
22:00	38.5	38.5	38.5	65	27.8	0	0	---	0.00	29.987 
22:05	38.3	38.3	38.3	67	28.3	0	0	---	0.00	29.991 
22:10	38.2	38.2	38.2	67	28.2	0	0	---	0.00	29.991 
22:15	38.2	38.2	38.2	68	28.6	0	0	---	0.00	30.001 
22:20	38.2	38.2	38.2	68	28.6	0	0	---	0.00	30.003 
22:25	38.0	38.0	38.0	68	28.4	0	0	---	0.00	30.004 
22:30	37.9	37.9	37.9	68	28.3	0	0	---	0.00	30.004 
22:35	37.6	37.6	37.6	69	28.4	0	0	---	0.00	30.007 
22:40	37.5	37.5	37.5	69	28.3	0	0	---	0.00	30.007 
22:45	37.3	37.3	37.3	70	28.4	0	0	---	0.00	30.007 
22:50	37.2	37.2	37.2	71	28.7	0	0	---	0.00	30.004 
22:55	37.2	37.2	37.2	70	28.3	0	0	---	0.00	30.000 
23:00	37.2	37.2	37.2	71	28.7	0	0	---	0.00	29.992 
23:05	37.5	37.5	37.5	71	29.0	0	0	---	0.00	29.989 
23:10	37.6	37.6	37.6	72	29.4	0	0	---	0.00	29.988 
23:15	37.6	37.6	37.6	72	29.4	0	0	---	0.00	29.988 
23:20	37.5	37.5	37.5	72	29.3	0	0	---	0.00	29.989 
23:25	37.3	37.3	37.3	70	28.4	0	0	---	0.00	29.992 
23:30	37.3	37.3	37.3	69	28.1	0	0	---	0.00	29.990 
23:35	37.6	37.6	37.6	68	28.0	0	1	338	0.00	29.989 
23:40	38.0	38.0	38.0	69	28.7	0	0	---	0.00	29.991 
23:45	38.5	38.5	38.5	69	29.2	0	0	---	0.00	29.988 
23:50	38.9	38.9	38.9	68	29.3	0	1	338	0.00	29.987 
23:55	39.3	39.3	39.3	67	29.3	0	1	338	0.00	29.987 

CoCoRaHS
IN-AL-39
A2 Web Hosting
Creative Commons License
GoDaddy
search engine by freefind advanced

loaded 2018-11-14 00:35:22 • last modified 2010-11-18 10:43:29
Privacy PolicyDisclaimer
• wx.awcolley.com is powered by PmWiki v.2002016 •
• all content (unless otherwise noted) © 2018 A W Colley